sensor_id;sensor_type;location;lat;lon;timestamp;temperature;humidity
45012;DHT22;63444;48.148;11.542;2022-09-30T00:00:00;10.30;99.90
45012;DHT22;63444;48.148;11.542;2022-09-30T00:02:25;10.30;99.90
45012;DHT22;63444;48.148;11.542;2022-09-30T00:04:51;10.30;99.90
45012;DHT22;63444;48.148;11.542;2022-09-30T00:07:17;10.40;99.90
45012;DHT22;63444;48.148;11.542;2022-09-30T00:09:42;10.40;99.90
45012;DHT22;63444;48.148;11.542;2022-09-30T00:12:08;10.40;99.90
45012;DHT22;63444;48.148;11.542;2022-09-30T00:14:35;10.40;99.90
45012;DHT22;63444;48.148;11.542;2022-09-30T00:17:01;10.30;99.90
45012;DHT22;63444;48.148;11.542;2022-09-30T00:19:26;10.30;99.90
45012;DHT22;63444;48.148;11.542;2022-09-30T00:21:52;10.30;99.90
45012;DHT22;63444;48.148;11.542;2022-09-30T00:24:17;10.30;99.90
45012;DHT22;63444;48.148;11.542;2022-09-30T00:26:43;10.30;99.90
45012;DHT22;63444;48.148;11.542;2022-09-30T00:29:09;10.30;99.90
45012;DHT22;63444;48.148;11.542;2022-09-30T00:31:36;10.20;99.90
45012;DHT22;63444;48.148;11.542;2022-09-30T00:34:02;10.20;99.90
45012;DHT22;63444;48.148;11.542;2022-09-30T00:36:46;10.30;99.90
45012;DHT22;63444;48.148;11.542;2022-09-30T00:39:16;10.20;99.90
45012;DHT22;63444;48.148;11.542;2022-09-30T00:41:44;10.20;99.90
45012;DHT22;63444;48.148;11.542;2022-09-30T00:47:32;10.20;99.90
45012;DHT22;63444;48.148;11.542;2022-09-30T00:52:49;10.10;99.90
45012;DHT22;63444;48.148;11.542;2022-09-30T00:55:30;10.10;99.90
45012;DHT22;63444;48.148;11.542;2022-09-30T00:57:58;10.10;99.90
45012;DHT22;63444;48.148;11.542;2022-09-30T01:00:25;10.10;99.90
45012;DHT22;63444;48.148;11.542;2022-09-30T01:02:50;10.10;99.90
45012;DHT22;63444;48.148;11.542;2022-09-30T01:05:17;10.10;99.90
45012;DHT22;63444;48.148;11.542;2022-09-30T01:07:43;10.10;99.90
45012;DHT22;63444;48.148;11.542;2022-09-30T01:10:09;10.10;99.90
45012;DHT22;63444;48.148;11.542;2022-09-30T01:12:34;10.20;99.90
45012;DHT22;63444;48.148;11.542;2022-09-30T01:15:01;10.20;99.90
45012;DHT22;63444;48.148;11.542;2022-09-30T01:17:31;10.20;99.90
45012;DHT22;63444;48.148;11.542;2022-09-30T01:25:53;10.10;99.90
45012;DHT22;63444;48.148;11.542;2022-09-30T01:28:46;10.10;99.90
45012;DHT22;63444;48.148;11.542;2022-09-30T01:31:26;10.10;99.90
45012;DHT22;63444;48.148;11.542;2022-09-30T01:44:19;10.10;99.90
45012;DHT22;63444;48.148;11.542;2022-09-30T01:55:23;10.20;99.90
45012;DHT22;63444;48.148;11.542;2022-09-30T01:58:06;10.20;99.90
45012;DHT22;63444;48.148;11.542;2022-09-30T02:00:37;10.30;99.90
45012;DHT22;63444;48.148;11.542;2022-09-30T02:03:28;10.20;99.90
45012;DHT22;63444;48.148;11.542;2022-09-30T02:06:00;10.20;99.90
45012;DHT22;63444;48.148;11.542;2022-09-30T02:08:54;10.20;99.90
45012;DHT22;63444;48.148;11.542;2022-09-30T02:11:29;10.20;99.90
45012;DHT22;63444;48.148;11.542;2022-09-30T02:14:03;10.20;99.90
45012;DHT22;63444;48.148;11.542;2022-09-30T02:16:49;10.20;99.90
45012;DHT22;63444;48.148;11.542;2022-09-30T02:19:37;10.20;99.90
45012;DHT22;63444;48.148;11.542;2022-09-30T02:22:09;10.20;99.90
45012;DHT22;63444;48.148;11.542;2022-09-30T02:24:36;10.20;99.90
45012;DHT22;63444;48.148;11.542;2022-09-30T02:27:20;10.20;99.90
45012;DHT22;63444;48.148;11.542;2022-09-30T02:29:56;10.20;99.90
45012;DHT22;63444;48.148;11.542;2022-09-30T02:32:33;10.20;99.90
45012;DHT22;63444;48.148;11.542;2022-09-30T02:35:13;10.30;99.90
45012;DHT22;63444;48.148;11.542;2022-09-30T02:37:45;10.30;99.90
45012;DHT22;63444;48.148;11.542;2022-09-30T02:40:19;10.30;99.90
45012;DHT22;63444;48.148;11.542;2022-09-30T02:42:50;10.30;99.90
45012;DHT22;63444;48.148;11.542;2022-09-30T02:45:19;10.20;99.90
45012;DHT22;63444;48.148;11.542;2022-09-30T02:48:25;10.20;99.90
45012;DHT22;63444;48.148;11.542;2022-09-30T02:59:07;10.20;99.90
45012;DHT22;63444;48.148;11.542;2022-09-30T03:01:33;10.20;99.90
45012;DHT22;63444;48.148;11.542;2022-09-30T03:04:03;10.20;99.90
45012;DHT22;63444;48.148;11.542;2022-09-30T03:06:31;10.20;99.90
45012;DHT22;63444;48.148;11.542;2022-09-30T03:08:57;10.20;99.90
45012;DHT22;63444;48.148;11.542;2022-09-30T03:11:24;10.20;99.90
45012;DHT22;63444;48.148;11.542;2022-09-30T03:23:15;10.20;99.90
45012;DHT22;63444;48.148;11.542;2022-09-30T03:25:49;10.20;99.90
45012;DHT22;63444;48.148;11.542;2022-09-30T03:36:18;10.10;99.90
45012;DHT22;63444;48.148;11.542;2022-09-30T03:41:40;10.10;99.90
45012;DHT22;63444;48.148;11.542;2022-09-30T03:44:18;10.10;99.90
45012;DHT22;63444;48.148;11.542;2022-09-30T03:46:53;10.10;99.90
45012;DHT22;63444;48.148;11.542;2022-09-30T03:49:25;10.20;99.90
45012;DHT22;63444;48.148;11.542;2022-09-30T03:51:53;10.10;99.90
45012;DHT22;63444;48.148;11.542;2022-09-30T03:54:19;10.20;99.90
45012;DHT22;63444;48.148;11.542;2022-09-30T03:56:44;10.00;99.90
45012;DHT22;63444;48.148;11.542;2022-09-30T03:59:28;10.10;99.90
45012;DHT22;63444;48.148;11.542;2022-09-30T04:01:55;10.20;99.90
45012;DHT22;63444;48.148;11.542;2022-09-30T04:04:23;10.20;99.90
45012;DHT22;63444;48.148;11.542;2022-09-30T04:06:49;10.10;99.90
45012;DHT22;63444;48.148;11.542;2022-09-30T04:09:15;10.10;99.90
45012;DHT22;63444;48.148;11.542;2022-09-30T04:11:40;10.10;99.90
45012;DHT22;63444;48.148;11.542;2022-09-30T04:14:07;10.10;99.90
45012;DHT22;63444;48.148;11.542;2022-09-30T04:16:33;10.10;99.90
45012;DHT22;63444;48.148;11.542;2022-09-30T04:18:59;10.10;99.90
45012;DHT22;63444;48.148;11.542;2022-09-30T04:21:25;10.00;99.90
45012;DHT22;63444;48.148;11.542;2022-09-30T04:23:54;10.10;99.90
45012;DHT22;63444;48.148;11.542;2022-09-30T04:26:20;10.00;99.90
45012;DHT22;63444;48.148;11.542;2022-09-30T04:28:50;10.00;99.90
45012;DHT22;63444;48.148;11.542;2022-09-30T04:31:16;10.00;99.90
45012;DHT22;63444;48.148;11.542;2022-09-30T04:33:44;10.00;99.90
45012;DHT22;63444;48.148;11.542;2022-09-30T04:36:10;10.00;99.90
45012;DHT22;63444;48.148;11.542;2022-09-30T04:38:36;10.00;99.90
45012;DHT22;63444;48.148;11.542;2022-09-30T04:41:03;10.00;99.90
45012;DHT22;63444;48.148;11.542;2022-09-30T04:43:30;10.00;99.90
45012;DHT22;63444;48.148;11.542;2022-09-30T04:45:56;10.00;99.90
45012;DHT22;63444;48.148;11.542;2022-09-30T04:48:23;10.00;99.90
45012;DHT22;63444;48.148;11.542;2022-09-30T04:50:50;10.00;99.90
45012;DHT22;63444;48.148;11.542;2022-09-30T04:53:16;10.00;99.90
45012;DHT22;63444;48.148;11.542;2022-09-30T04:55:43;10.00;99.90
45012;DHT22;63444;48.148;11.542;2022-09-30T04:58:09;10.00;99.90
45012;DHT22;63444;48.148;11.542;2022-09-30T05:00:37;10.00;99.90
45012;DHT22;63444;48.148;11.542;2022-09-30T05:03:04;10.00;99.90
45012;DHT22;63444;48.148;11.542;2022-09-30T05:05:31;10.00;99.90
45012;DHT22;63444;48.148;11.542;2022-09-30T05:08:04;10.00;99.90
45012;DHT22;63444;48.148;11.542;2022-09-30T05:10:30;9.90;99.90
45012;DHT22;63444;48.148;11.542;2022-09-30T05:12:56;10.00;99.90
45012;DHT22;63444;48.148;11.542;2022-09-30T05:15:23;9.90;99.90
45012;DHT22;63444;48.148;11.542;2022-09-30T05:17:49;9.90;99.90
45012;DHT22;63444;48.148;11.542;2022-09-30T05:20:15;10.00;99.90
45012;DHT22;63444;48.148;11.542;2022-09-30T05:22:42;10.00;99.90
45012;DHT22;63444;48.148;11.542;2022-09-30T05:25:08;10.00;99.90
45012;DHT22;63444;48.148;11.542;2022-09-30T05:27:34;10.00;99.90
45012;DHT22;63444;48.148;11.542;2022-09-30T05:30:00;10.10;99.90
45012;DHT22;63444;48.148;11.542;2022-09-30T05:32:26;10.10;99.90
45012;DHT22;63444;48.148;11.542;2022-09-30T05:34:51;10.10;99.90
45012;DHT22;63444;48.148;11.542;2022-09-30T05:37:19;10.10;99.90
45012;DHT22;63444;48.148;11.542;2022-09-30T05:39:44;10.10;99.90
45012;DHT22;63444;48.148;11.542;2022-09-30T05:42:10;10.10;99.90
45012;DHT22;63444;48.148;11.542;2022-09-30T05:44:38;10.10;99.90
45012;DHT22;63444;48.148;11.542;2022-09-30T05:47:05;10.10;99.90
45012;DHT22;63444;48.148;11.542;2022-09-30T05:49:31;10.10;99.90
45012;DHT22;63444;48.148;11.542;2022-09-30T05:51:58;10.10;99.90
45012;DHT22;63444;48.148;11.542;2022-09-30T05:54:24;10.10;99.90
45012;DHT22;63444;48.148;11.542;2022-09-30T05:56:49;10.20;99.90
45012;DHT22;63444;48.148;11.542;2022-09-30T05:59:17;10.20;99.90
45012;DHT22;63444;48.148;11.542;2022-09-30T06:01:43;10.20;99.90
45012;DHT22;63444;48.148;11.542;2022-09-30T06:04:11;10.30;99.90
45012;DHT22;63444;48.148;11.542;2022-09-30T06:06:38;10.30;99.90
45012;DHT22;63444;48.148;11.542;2022-09-30T06:09:03;10.40;99.90
45012;DHT22;63444;48.148;11.542;2022-09-30T06:11:30;10.40;99.90
45012;DHT22;63444;48.148;11.542;2022-09-30T06:13:56;10.50;99.90
45012;DHT22;63444;48.148;11.542;2022-09-30T06:16:23;10.60;99.90
45012;DHT22;63444;48.148;11.542;2022-09-30T06:18:50;10.70;99.90
45012;DHT22;63444;48.148;11.542;2022-09-30T06:21:16;10.80;99.90
45012;DHT22;63444;48.148;11.542;2022-09-30T06:23:42;10.90;99.90
45012;DHT22;63444;48.148;11.542;2022-09-30T06:26:10;11.00;99.90
45012;DHT22;63444;48.148;11.542;2022-09-30T06:28:36;11.10;99.90
45012;DHT22;63444;48.148;11.542;2022-09-30T06:31:03;11.20;99.90
45012;DHT22;63444;48.148;11.542;2022-09-30T06:33:29;11.30;99.90
45012;DHT22;63444;48.148;11.542;2022-09-30T06:35:56;11.40;99.90
45012;DHT22;63444;48.148;11.542;2022-09-30T06:38:22;11.40;99.90
45012;DHT22;63444;48.148;11.542;2022-09-30T06:40:49;11.50;99.90
45012;DHT22;63444;48.148;11.542;2022-09-30T06:43:18;11.60;99.90
45012;DHT22;63444;48.148;11.542;2022-09-30T06:45:45;11.70;99.90
45012;DHT22;63444;48.148;11.542;2022-09-30T06:48:13;11.90;99.90
45012;DHT22;63444;48.148;11.542;2022-09-30T06:50:40;12.00;99.90
45012;DHT22;63444;48.148;11.542;2022-09-30T06:53:07;12.40;99.90
45012;DHT22;63444;48.148;11.542;2022-09-30T06:55:34;12.70;99.90
45012;DHT22;63444;48.148;11.542;2022-09-30T06:58:04;12.90;99.90
45012;DHT22;63444;48.148;11.542;2022-09-30T07:00:31;13.20;99.90
45012;DHT22;63444;48.148;11.542;2022-09-30T07:02:58;13.40;99.90
45012;DHT22;63444;48.148;11.542;2022-09-30T07:05:24;13.60;99.90
45012;DHT22;63444;48.148;11.542;2022-09-30T07:07:51;13.80;99.90
45012;DHT22;63444;48.148;11.542;2022-09-30T07:10:17;14.00;99.90
45012;DHT22;63444;48.148;11.542;2022-09-30T07:12:43;14.20;99.90
45012;DHT22;63444;48.148;11.542;2022-09-30T07:15:08;14.30;99.90
45012;DHT22;63444;48.148;11.542;2022-09-30T07:17:34;14.40;99.90
45012;DHT22;63444;48.148;11.542;2022-09-30T07:20:00;14.30;99.90
45012;DHT22;63444;48.148;11.542;2022-09-30T07:22:25;14.20;99.90
45012;DHT22;63444;48.148;11.542;2022-09-30T07:24:52;14.10;99.90
45012;DHT22;63444;48.148;11.542;2022-09-30T07:27:17;14.00;99.90
45012;DHT22;63444;48.148;11.542;2022-09-30T07:29:44;14.00;99.90
45012;DHT22;63444;48.148;11.542;2022-09-30T07:32:10;14.00;99.90
45012;DHT22;63444;48.148;11.542;2022-09-30T07:34:37;14.10;99.90
45012;DHT22;63444;48.148;11.542;2022-09-30T07:37:08;14.20;99.90
45012;DHT22;63444;48.148;11.542;2022-09-30T07:39:34;14.30;99.90
45012;DHT22;63444;48.148;11.542;2022-09-30T07:42:00;14.40;99.90
45012;DHT22;63444;48.148;11.542;2022-09-30T07:44:29;14.50;99.90
45012;DHT22;63444;48.148;11.542;2022-09-30T07:46:55;14.50;99.90
45012;DHT22;63444;48.148;11.542;2022-09-30T07:49:21;14.30;99.90
45012;DHT22;63444;48.148;11.542;2022-09-30T07:51:53;14.20;99.90
45012;DHT22;63444;48.148;11.542;2022-09-30T07:54:21;14.30;99.90
45012;DHT22;63444;48.148;11.542;2022-09-30T07:56:50;14.30;99.90
45012;DHT22;63444;48.148;11.542;2022-09-30T07:59:19;14.30;99.90
45012;DHT22;63444;48.148;11.542;2022-09-30T08:01:45;14.40;99.90
45012;DHT22;63444;48.148;11.542;2022-09-30T08:04:13;14.40;99.90
45012;DHT22;63444;48.148;11.542;2022-09-30T08:06:47;14.40;99.90
45012;DHT22;63444;48.148;11.542;2022-09-30T08:09:18;14.40;99.90
45012;DHT22;63444;48.148;11.542;2022-09-30T08:11:46;14.50;99.90
45012;DHT22;63444;48.148;11.542;2022-09-30T08:14:20;14.60;99.90
45012;DHT22;63444;48.148;11.542;2022-09-30T08:16:46;14.60;99.90
45012;DHT22;63444;48.148;11.542;2022-09-30T08:19:13;14.60;99.90
45012;DHT22;63444;48.148;11.542;2022-09-30T08:21:42;14.60;99.90
45012;DHT22;63444;48.148;11.542;2022-09-30T08:24:10;14.60;99.90
45012;DHT22;63444;48.148;11.542;2022-09-30T08:26:37;14.70;99.90
45012;DHT22;63444;48.148;11.542;2022-09-30T08:29:03;15.00;99.90
45012;DHT22;63444;48.148;11.542;2022-09-30T08:31:29;15.30;99.90
45012;DHT22;63444;48.148;11.542;2022-09-30T08:33:55;15.50;99.90
45012;DHT22;63444;48.148;11.542;2022-09-30T08:36:22;15.70;99.90
45012;DHT22;63444;48.148;11.542;2022-09-30T08:38:49;15.90;99.90
45012;DHT22;63444;48.148;11.542;2022-09-30T08:41:22;16.10;99.90
45012;DHT22;63444;48.148;11.542;2022-09-30T08:52:39;16.60;99.20
45012;DHT22;63444;48.148;11.542;2022-09-30T08:55:20;16.80;99.50
45012;DHT22;63444;48.148;11.542;2022-09-30T08:57:47;16.80;98.80
45012;DHT22;63444;48.148;11.542;2022-09-30T09:00:16;16.70;98.40
45012;DHT22;63444;48.148;11.542;2022-09-30T09:02:47;16.60;98.20
45012;DHT22;63444;48.148;11.542;2022-09-30T09:05:44;16.40;98.50
45012;DHT22;63444;48.148;11.542;2022-09-30T09:14:46;15.80;99.80
45012;DHT22;63444;48.148;11.542;2022-09-30T09:20:17;15.80;99.90
45012;DHT22;63444;48.148;11.542;2022-09-30T09:22:45;15.90;99.90
45012;DHT22;63444;48.148;11.542;2022-09-30T09:25:20;15.90;99.90
45012;DHT22;63444;48.148;11.542;2022-09-30T09:27:55;15.90;99.40
45012;DHT22;63444;48.148;11.542;2022-09-30T09:30:23;15.80;99.60
45012;DHT22;63444;48.148;11.542;2022-09-30T09:32:52;15.70;99.40
45012;DHT22;63444;48.148;11.542;2022-09-30T09:35:46;15.60;99.80
45012;DHT22;63444;48.148;11.542;2022-09-30T09:38:52;15.50;99.90
45012;DHT22;63444;48.148;11.542;2022-09-30T09:46:35;15.00;99.90
45012;DHT22;63444;48.148;11.542;2022-09-30T09:54:49;14.90;99.90
45012;DHT22;63444;48.148;11.542;2022-09-30T09:57:21;14.80;99.90
45012;DHT22;63444;48.148;11.542;2022-09-30T10:03:18;14.60;99.90
45012;DHT22;63444;48.148;11.542;2022-09-30T10:06:08;14.50;99.90
45012;DHT22;63444;48.148;11.542;2022-09-30T10:08:57;14.70;99.90
45012;DHT22;63444;48.148;11.542;2022-09-30T10:11:26;14.80;99.90
45012;DHT22;63444;48.148;11.542;2022-09-30T10:13:59;14.80;99.90
45012;DHT22;63444;48.148;11.542;2022-09-30T10:16:36;15.00;99.90
45012;DHT22;63444;48.148;11.542;2022-09-30T10:19:24;15.10;99.90
45012;DHT22;63444;48.148;11.542;2022-09-30T10:24:38;15.40;99.90
45012;DHT22;63444;48.148;11.542;2022-09-30T10:27:25;15.50;99.90
45012;DHT22;63444;48.148;11.542;2022-09-30T10:29:51;15.60;99.90
45012;DHT22;63444;48.148;11.542;2022-09-30T10:32:19;15.60;99.90
45012;DHT22;63444;48.148;11.542;2022-09-30T10:34:46;15.60;99.90
45012;DHT22;63444;48.148;11.542;2022-09-30T10:37:21;15.50;99.90
45012;DHT22;63444;48.148;11.542;2022-09-30T10:42:28;15.40;99.90
45012;DHT22;63444;48.148;11.542;2022-09-30T10:45:15;15.40;99.90
45012;DHT22;63444;48.148;11.542;2022-09-30T10:47:45;15.40;99.90
45012;DHT22;63444;48.148;11.542;2022-09-30T10:50:13;15.50;99.90
45012;DHT22;63444;48.148;11.542;2022-09-30T10:57:46;15.30;99.90
45012;DHT22;63444;48.148;11.542;2022-09-30T11:00:23;15.40;99.90
45012;DHT22;63444;48.148;11.542;2022-09-30T11:03:00;15.40;99.90
45012;DHT22;63444;48.148;11.542;2022-09-30T11:05:37;15.30;99.90
45012;DHT22;63444;48.148;11.542;2022-09-30T11:13:58;15.20;99.90
45012;DHT22;63444;48.148;11.542;2022-09-30T11:16:32;15.10;99.90
45012;DHT22;63444;48.148;11.542;2022-09-30T11:21:45;15.10;99.90
45012;DHT22;63444;48.148;11.542;2022-09-30T11:24:48;15.00;99.90
45012;DHT22;63444;48.148;11.542;2022-09-30T11:27:34;15.00;99.90
45012;DHT22;63444;48.148;11.542;2022-09-30T11:35:54;14.90;99.90
45012;DHT22;63444;48.148;11.542;2022-09-30T11:41:49;14.70;99.90
45012;DHT22;63444;48.148;11.542;2022-09-30T11:54:47;14.40;99.90
45012;DHT22;63444;48.148;11.542;2022-09-30T11:57:29;14.40;99.90
45012;DHT22;63444;48.148;11.542;2022-09-30T12:00:06;14.40;99.90
45012;DHT22;63444;48.148;11.542;2022-09-30T12:02:45;14.40;99.90
45012;DHT22;63444;48.148;11.542;2022-09-30T12:05:21;14.40;99.90
45012;DHT22;63444;48.148;11.542;2022-09-30T12:07:58;14.40;99.90
45012;DHT22;63444;48.148;11.542;2022-09-30T12:10:30;14.40;99.90
45012;DHT22;63444;48.148;11.542;2022-09-30T12:13:05;14.50;99.90
45012;DHT22;63444;48.148;11.542;2022-09-30T12:15:35;14.50;99.90
45012;DHT22;63444;48.148;11.542;2022-09-30T12:18:05;14.60;99.90
45012;DHT22;63444;48.148;11.542;2022-09-30T12:20:56;14.70;99.90
45012;DHT22;63444;48.148;11.542;2022-09-30T12:23:45;14.90;99.90
45012;DHT22;63444;48.148;11.542;2022-09-30T12:26:12;14.90;99.90
45012;DHT22;63444;48.148;11.542;2022-09-30T12:28:46;15.00;99.90
45012;DHT22;63444;48.148;11.542;2022-09-30T12:34:54;15.00;99.90
45012;DHT22;63444;48.148;11.542;2022-09-30T12:38:04;15.00;99.90
45012;DHT22;63444;48.148;11.542;2022-09-30T12:49:24;15.20;99.90
45012;DHT22;63444;48.148;11.542;2022-09-30T12:51:57;15.30;99.90
45012;DHT22;63444;48.148;11.542;2022-09-30T12:54:34;15.30;99.90
45012;DHT22;63444;48.148;11.542;2022-09-30T12:57:02;15.30;99.90
45012;DHT22;63444;48.148;11.542;2022-09-30T12:59:34;15.30;99.90
45012;DHT22;63444;48.148;11.542;2022-09-30T13:02:02;15.20;99.90
45012;DHT22;63444;48.148;11.542;2022-09-30T13:04:35;15.30;99.90
45012;DHT22;63444;48.148;11.542;2022-09-30T13:07:05;15.20;99.90
45012;DHT22;63444;48.148;11.542;2022-09-30T13:09:36;15.30;99.90
45012;DHT22;63444;48.148;11.542;2022-09-30T13:19:48;15.30;99.90
45012;DHT22;63444;48.148;11.542;2022-09-30T13:27:41;15.40;99.90
45012;DHT22;63444;48.148;11.542;2022-09-30T13:38:16;15.50;99.90
45012;DHT22;63444;48.148;11.542;2022-09-30T13:40:53;15.40;99.90
45012;DHT22;63444;48.148;11.542;2022-09-30T13:45:54;15.30;99.90
45012;DHT22;63444;48.148;11.542;2022-09-30T13:48:27;15.10;99.90
45012;DHT22;63444;48.148;11.542;2022-09-30T13:50:54;15.10;99.90
45012;DHT22;63444;48.148;11.542;2022-09-30T13:53:48;15.10;99.90
45012;DHT22;63444;48.148;11.542;2022-09-30T13:56:25;15.20;99.90
45012;DHT22;63444;48.148;11.542;2022-09-30T14:08:15;15.00;99.90
45012;DHT22;63444;48.148;11.542;2022-09-30T14:16:43;15.10;99.90
45012;DHT22;63444;48.148;11.542;2022-09-30T14:21:47;15.20;99.90
45012;DHT22;63444;48.148;11.542;2022-09-30T14:24:21;15.10;99.90
45012;DHT22;63444;48.148;11.542;2022-09-30T14:27:26;15.00;99.90
45012;DHT22;63444;48.148;11.542;2022-09-30T14:30:19;14.90;99.90
45012;DHT22;63444;48.148;11.542;2022-09-30T14:32:48;15.00;99.90
45012;DHT22;63444;48.148;11.542;2022-09-30T14:35:32;15.00;99.90
45012;DHT22;63444;48.148;11.542;2022-09-30T14:37:59;15.00;99.90
45012;DHT22;63444;48.148;11.542;2022-09-30T14:40:35;15.00;99.90
45012;DHT22;63444;48.148;11.542;2022-09-30T14:43:05;14.90;99.90
45012;DHT22;63444;48.148;11.542;2022-09-30T14:45:34;14.90;99.90
45012;DHT22;63444;48.148;11.542;2022-09-30T14:48:08;14.80;99.90
45012;DHT22;63444;48.148;11.542;2022-09-30T14:51:03;14.80;99.90
45012;DHT22;63444;48.148;11.542;2022-09-30T14:53:32;14.80;99.90
45012;DHT22;63444;48.148;11.542;2022-09-30T14:56:00;14.80;99.90
45012;DHT22;63444;48.148;11.542;2022-09-30T14:58:29;14.80;99.90
45012;DHT22;63444;48.148;11.542;2022-09-30T15:01:14;14.90;99.90
45012;DHT22;63444;48.148;11.542;2022-09-30T15:03:44;14.90;99.90
45012;DHT22;63444;48.148;11.542;2022-09-30T15:08:51;14.90;99.90
45012;DHT22;63444;48.148;11.542;2022-09-30T15:11:24;14.90;99.90
45012;DHT22;63444;48.148;11.542;2022-09-30T15:14:00;14.90;99.90
45012;DHT22;63444;48.148;11.542;2022-09-30T15:16:29;14.80;99.90
45012;DHT22;63444;48.148;11.542;2022-09-30T15:18:56;14.70;99.90
45012;DHT22;63444;48.148;11.542;2022-09-30T15:21:24;14.70;99.90
45012;DHT22;63444;48.148;11.542;2022-09-30T15:23:54;14.70;99.90
45012;DHT22;63444;48.148;11.542;2022-09-30T15:26:21;14.70;99.90
45012;DHT22;63444;48.148;11.542;2022-09-30T15:28:48;14.60;99.90
45012;DHT22;63444;48.148;11.542;2022-09-30T15:31:26;14.50;99.90
45012;DHT22;63444;48.148;11.542;2022-09-30T15:34:15;14.50;99.90
45012;DHT22;63444;48.148;11.542;2022-09-30T15:36:41;14.50;99.90
45012;DHT22;63444;48.148;11.542;2022-09-30T15:39:20;14.50;99.90
45012;DHT22;63444;48.148;11.542;2022-09-30T15:41:47;14.40;99.90
45012;DHT22;63444;48.148;11.542;2022-09-30T15:44:18;14.40;99.90
45012;DHT22;63444;48.148;11.542;2022-09-30T15:47:04;14.40;99.90
45012;DHT22;63444;48.148;11.542;2022-09-30T15:52:26;14.40;99.90
45012;DHT22;63444;48.148;11.542;2022-09-30T15:54:53;14.40;99.90
45012;DHT22;63444;48.148;11.542;2022-09-30T15:57:45;14.40;99.90
45012;DHT22;63444;48.148;11.542;2022-09-30T16:00:33;14.40;99.90
45012;DHT22;63444;48.148;11.542;2022-09-30T16:03:22;14.40;99.90
45012;DHT22;63444;48.148;11.542;2022-09-30T16:05:48;14.40;99.90
45012;DHT22;63444;48.148;11.542;2022-09-30T16:08:25;14.40;99.90
45012;DHT22;63444;48.148;11.542;2022-09-30T16:10:54;14.40;99.90
45012;DHT22;63444;48.148;11.542;2022-09-30T16:13:24;14.40;99.90
45012;DHT22;63444;48.148;11.542;2022-09-30T16:15:53;14.30;99.90
45012;DHT22;63444;48.148;11.542;2022-09-30T16:18:26;14.30;99.90
45012;DHT22;63444;48.148;11.542;2022-09-30T16:21:00;14.30;99.90
45012;DHT22;63444;48.148;11.542;2022-09-30T16:23:34;14.30;99.90
45012;DHT22;63444;48.148;11.542;2022-09-30T16:26:17;14.30;99.90
45012;DHT22;63444;48.148;11.542;2022-09-30T16:28:43;14.30;99.90
45012;DHT22;63444;48.148;11.542;2022-09-30T16:31:11;14.30;99.90
45012;DHT22;63444;48.148;11.542;2022-09-30T16:33:41;14.20;99.90
45012;DHT22;63444;48.148;11.542;2022-09-30T16:36:09;14.10;99.90
45012;DHT22;63444;48.148;11.542;2022-09-30T16:38:35;14.10;99.90
45012;DHT22;63444;48.148;11.542;2022-09-30T16:41:01;14.10;99.90
45012;DHT22;63444;48.148;11.542;2022-09-30T16:43:28;14.10;99.90
45012;DHT22;63444;48.148;11.542;2022-09-30T16:45:58;14.00;99.90
45012;DHT22;63444;48.148;11.542;2022-09-30T16:48:25;14.00;99.90
45012;DHT22;63444;48.148;11.542;2022-09-30T16:51:05;14.00;99.90
45012;DHT22;63444;48.148;11.542;2022-09-30T16:53:32;14.10;99.90
45012;DHT22;63444;48.148;11.542;2022-09-30T16:55:58;14.10;99.90
45012;DHT22;63444;48.148;11.542;2022-09-30T16:58:24;14.10;99.90
45012;DHT22;63444;48.148;11.542;2022-09-30T17:00:49;14.10;99.90
45012;DHT22;63444;48.148;11.542;2022-09-30T17:03:17;14.20;99.90
45012;DHT22;63444;48.148;11.542;2022-09-30T17:05:46;14.20;99.90
45012;DHT22;63444;48.148;11.542;2022-09-30T17:08:18;14.10;99.90
45012;DHT22;63444;48.148;11.542;2022-09-30T17:10:45;14.20;99.90
45012;DHT22;63444;48.148;11.542;2022-09-30T17:13:14;14.20;99.90
45012;DHT22;63444;48.148;11.542;2022-09-30T17:15:45;14.20;99.90
45012;DHT22;63444;48.148;11.542;2022-09-30T17:18:11;14.10;99.90
45012;DHT22;63444;48.148;11.542;2022-09-30T17:20:42;14.10;99.90
45012;DHT22;63444;48.148;11.542;2022-09-30T17:23:11;14.10;99.90
45012;DHT22;63444;48.148;11.542;2022-09-30T17:25:41;14.20;99.90
45012;DHT22;63444;48.148;11.542;2022-09-30T17:28:10;14.20;99.90
45012;DHT22;63444;48.148;11.542;2022-09-30T17:30:38;14.20;99.90
45012;DHT22;63444;48.148;11.542;2022-09-30T17:33:07;14.10;99.90
45012;DHT22;63444;48.148;11.542;2022-09-30T17:35:39;14.10;99.90
45012;DHT22;63444;48.148;11.542;2022-09-30T17:38:09;14.10;99.90
45012;DHT22;63444;48.148;11.542;2022-09-30T17:40:38;14.10;99.90
45012;DHT22;63444;48.148;11.542;2022-09-30T17:43:23;14.20;99.90
45012;DHT22;63444;48.148;11.542;2022-09-30T17:45:49;14.20;99.90
45012;DHT22;63444;48.148;11.542;2022-09-30T17:48:18;14.20;99.90
45012;DHT22;63444;48.148;11.542;2022-09-30T17:50:45;14.10;99.90
45012;DHT22;63444;48.148;11.542;2022-09-30T17:53:13;14.20;99.90
45012;DHT22;63444;48.148;11.542;2022-09-30T17:55:40;14.10;99.90
45012;DHT22;63444;48.148;11.542;2022-09-30T17:58:06;14.20;99.90
45012;DHT22;63444;48.148;11.542;2022-09-30T18:00:33;14.20;99.90
45012;DHT22;63444;48.148;11.542;2022-09-30T18:02:59;14.10;99.90
45012;DHT22;63444;48.148;11.542;2022-09-30T18:05:25;14.10;99.90
45012;DHT22;63444;48.148;11.542;2022-09-30T18:07:51;14.20;99.90
45012;DHT22;63444;48.148;11.542;2022-09-30T18:10:17;14.10;99.90
45012;DHT22;63444;48.148;11.542;2022-09-30T18:12:43;14.20;99.90
45012;DHT22;63444;48.148;11.542;2022-09-30T18:15:09;14.20;99.90
45012;DHT22;63444;48.148;11.542;2022-09-30T18:17:35;14.10;99.90
45012;DHT22;63444;48.148;11.542;2022-09-30T18:20:00;14.10;99.90
45012;DHT22;63444;48.148;11.542;2022-09-30T18:22:26;14.10;99.90
45012;DHT22;63444;48.148;11.542;2022-09-30T18:24:51;14.10;99.90
45012;DHT22;63444;48.148;11.542;2022-09-30T18:27:36;14.10;99.90
45012;DHT22;63444;48.148;11.542;2022-09-30T18:30:03;14.20;99.90
45012;DHT22;63444;48.148;11.542;2022-09-30T18:32:30;14.10;99.90
45012;DHT22;63444;48.148;11.542;2022-09-30T18:34:56;14.10;99.90
45012;DHT22;63444;48.148;11.542;2022-09-30T18:37:23;14.10;99.90
45012;DHT22;63444;48.148;11.542;2022-09-30T18:39:49;14.00;99.90
45012;DHT22;63444;48.148;11.542;2022-09-30T18:42:15;14.00;99.90
45012;DHT22;63444;48.148;11.542;2022-09-30T18:44:43;14.10;99.90
45012;DHT22;63444;48.148;11.542;2022-09-30T18:47:09;14.10;99.90